Detalii statie PETRESTI PETRESTI [0000197D]

Toti senzorii

Date Temperatura solului [C]Precipitatii [mm]Voltaj baterie [mV]Leaf Wetness [Min]HC Air temperature [C]HC Relative humidity [%]Punctul de roua [C]
medieminmaxsumaultimatimpmedieminmaxmediemediemin
2018-08-12 11:00:00 0 7216 27.78 27.32 28.18 53.07 17.1 16.5
2018-08-12 12:00:00 0 7216 30.08 27.93 31.59 44.37 16.3 15.5
2018-08-12 13:00:00 0 7216 29.51 28.44 32.3 44.46 15.9 15.3
2018-08-12 14:00:00 0 7216 31.37 29.94 32.76 37.48 14.9 13.6
2018-08-12 15:00:00 0 7216 30.99 29.65 32.31 36.46 14.1 12.9
2018-08-12 16:00:00 0 7216 31.3 29.95 32.36 34.33 13.4 13
2018-08-12 17:00:00 0 7226 31.04 30.14 32.09 34.43 13.2 12.9
2018-08-12 18:00:00 0 7216 30.88 30.25 31.45 33.08 12.5 11.4
2018-08-12 19:00:00 0 7000 29.73 28.56 30.64 32.89 11.4 10.7
2018-08-12 20:00:00 0 6894 26.46 24.53 28.3 38.9 11 10.9
2018-08-12 21:00:00 0 6874 23.55 22.57 24.59 47.69 11.5 11
2018-08-12 22:00:00 0 6826 21.77 21.33 22.35 54.64 12 11.7
2018-08-12 23:00:00 0 6834 21.05 19.56 22 59.91 12.7 12.3
2018-08-13 00:00:00 0 6816 18.74 18.17 19.27 69.45 12.9 12.6
2018-08-13 01:00:00 0 6806 17.86 17.62 18.19 73.87 12.9 12.7
2018-08-13 02:00:00 0 6806 17.51 17.24 17.91 76.67 13.2 13.1
2018-08-13 03:00:00 0 6786 16.9 16.74 17.09 80.12 13.2 13.1
2018-08-13 04:00:00 0 6796 16.84 16.29 18.07 79.36 13 12.8
2018-08-13 05:00:00 0 6786 17.24 16.22 18.39 80.42 13.6 13.3
2018-08-13 06:00:00 0 6776 16.2 15.82 16.6 85.25 13.6 13.1
2018-08-13 07:00:00 0 6796 18.57 16.96 20.58 76.61 14.2 13.7
2018-08-13 08:00:00 0 6826 24.02 21.08 26.49 57.3 14.8 14.4
2018-08-13 09:00:00 0 6894 27.37 26.86 28.43 51.34 16.2 15.6
2018-08-13 10:00:00 0 6962 28.5 27.27 29.43 47.92 16.1 15.7
2018-08-13 11:00:00 0 7176 30.01 29.34 31.29 43.61 16 15.6
2018-08-13 12:00:00 0 7216 31.46 30.23 33.33 39.13 15.6 15.3
2018-08-13 13:00:00 0 7226 31.77 30.97 32.41 37.91 15.4 15
2018-08-13 14:00:00 0 7226 31.99 30.65 33.58 36.47 14.9 14.5
2018-08-13 15:00:00 0 7216 33.02 32.3 33.97 33.26 14.4 13.9
2018-08-13 16:00:00 0 7216 32.9 31.75 33.64 32.75 14 13.2
2018-08-13 17:00:00 0 7226 32.76 32.17 33.69 32.53 13.9 13.2
2018-08-13 18:00:00 0 7216 32.04 31.63 32.44 33.57 13.7 13.1
2018-08-13 19:00:00 0 7020 30.97 30.05 31.78 35.95 13.8 13.6
2018-08-13 20:00:00 0 6904 27.9 25.88 30.05 44.24 14.2 13.7
2018-08-13 21:00:00 0 6874 24.64 23.89 25.69 57.09 15.4 14.9
2018-08-13 22:00:00 0 6834 22.73 21.93 23.85 64.27 15.4 15.3
2018-08-13 23:00:00 0 6826 21.15 20.66 21.79 70.24 15.3 15.2
2018-08-14 00:00:00 0 6816 20.35 19.92 20.84 74.67 15.5 15.2
2018-08-14 01:00:00 0 6806 21.33 20.26 21.71 71.62 15.7 15.6
2018-08-14 02:00:00 0 6796 21.84 21.54 22.06 69.11 15.7 15.6
2018-08-14 03:00:00 0 6806 21.14 20.59 21.66 71.93 15.7 15.6
2018-08-14 04:00:00 0 6796 20.39 19.18 20.75 75.6 15.7 15.2
2018-08-14 05:00:00 0 6796 17.54 17.4 18.12 87.59 15.3 15
2018-08-14 06:00:00 0 6786 17.11 16.84 17.61 91.71 15.6 15.2
2018-08-14 07:00:00 0 6816 19.44 17.79 21.4 85.33 16.7 16.2
2018-08-14 08:00:00 0 6826 23.71 21.72 25.76 66.4 16.9 16.6
2018-08-14 09:00:00 0 6894 28.14 26.36 30.03 50.39 16.5 15.6